createdAt,value
2023-04-05T00:05:07.850Z,-1.23
2023-04-05T00:10:35.871Z,-1.31
2023-04-05T00:16:08.027Z,-1.35
2023-04-05T00:21:35.500Z,-1.44
2023-04-05T00:27:01.879Z,-1.51
2023-04-05T00:32:32.859Z,-1.57
2023-04-05T00:37:57.853Z,-1.66
2023-04-05T00:43:26.249Z,-1.70
2023-04-05T00:48:56.826Z,-1.74
2023-04-05T00:54:23.872Z,-1.80
2023-04-05T00:59:48.808Z,-1.78
2023-04-05T01:05:22.771Z,-1.81
2023-04-05T01:10:58.783Z,-1.80
2023-04-05T01:22:23.734Z,-1.86
2023-04-05T01:28:10.770Z,-1.91
2023-04-05T01:33:46.869Z,-1.97
2023-04-05T01:39:14.762Z,-1.99
2023-04-05T01:44:39.734Z,-2.01
2023-04-05T01:50:08.014Z,-2.05
2023-04-05T01:55:40.791Z,-2.06
2023-04-05T02:01:06.894Z,-2.05
2023-04-05T02:06:33.852Z,-2.04
2023-04-05T02:12:08.932Z,-2.05
2023-04-05T02:17:40.839Z,-2.09
2023-04-05T02:23:08.885Z,-2.08
2023-04-05T02:28:35.833Z,-2.07
2023-04-05T02:34:04.833Z,-2.06
2023-04-05T02:39:35.879Z,-2.05
2023-04-05T02:50:33.838Z,-2.06
2023-04-05T02:56:12.898Z,-2.08
2023-04-05T03:01:43.127Z,-2.05
2023-04-05T03:07:17.896Z,-2.05
2023-04-05T03:12:45.814Z,-2.06
2023-04-05T03:18:14.985Z,-1.98
2023-04-05T03:23:43.864Z,-1.98
2023-04-05T03:29:23.867Z,-1.95
2023-04-05T03:34:53.841Z,-1.89
2023-04-05T03:40:19.923Z,-1.87
2023-04-05T03:45:47.850Z,-1.87
2023-04-05T03:51:14.826Z,-1.86
2023-04-05T03:56:48.832Z,-1.86
2023-04-05T04:07:39.835Z,-1.84
2023-04-05T04:13:12.028Z,-1.80
2023-04-05T04:18:42.955Z,-1.80
2023-04-05T04:24:33.873Z,-1.81
2023-04-05T04:30:19.850Z,-1.83
2023-04-05T04:36:01.933Z,-1.79
2023-04-05T04:41:44.809Z,-1.80
2023-04-05T04:47:30.813Z,-1.80
2023-04-05T04:53:08.847Z,-1.81
2023-04-05T04:58:33.813Z,-1.78
2023-04-05T05:04:00.788Z,-1.78
2023-04-05T05:09:30.798Z,-1.77
2023-04-05T05:14:55.853Z,-1.68
2023-04-05T05:20:21.856Z,-1.75
2023-04-05T05:25:48.821Z,-1.75
2023-04-05T05:31:14.872Z,-1.70
2023-04-05T05:36:38.842Z,-1.68
2023-04-05T05:42:08.814Z,-1.62
2023-04-05T05:47:32.930Z,-1.57
2023-04-05T05:52:59.171Z,-1.50
2023-04-05T05:58:28.804Z,-1.46
2023-04-05T06:03:53.885Z,-1.43
2023-04-05T06:09:11.872Z,-1.41
2023-04-05T06:14:38.855Z,-1.32
2023-04-05T06:20:03.831Z,-1.30
2023-04-05T06:25:27.835Z,-1.24
2023-04-05T06:30:55.974Z,-1.10
2023-04-05T06:36:21.134Z,-1.04
2023-04-05T06:41:51.836Z,-0.91
2023-04-05T06:47:22.860Z,-0.69
2023-04-05T06:52:48.864Z,-0.56
2023-04-05T06:58:13.841Z,-0.26
2023-04-05T07:03:41.832Z,-0.16
2023-04-05T07:09:06.859Z,-0.02
2023-04-05T07:14:30.849Z,0.07
2023-04-05T07:20:04.906Z,0.22
2023-04-05T07:25:29.883Z,0.43
2023-04-05T07:30:53.882Z,0.67
2023-04-05T07:36:21.923Z,0.90
2023-04-05T07:41:45.882Z,1.04
2023-04-05T07:47:10.938Z,1.19
2023-04-05T07:52:38.086Z,1.37
2023-04-05T07:58:02.884Z,1.58
2023-04-05T08:03:27.913Z,1.75
2023-04-05T08:08:55.856Z,1.88
2023-04-05T08:14:19.937Z,1.91
2023-04-05T08:19:51.905Z,2.03
2023-04-05T08:25:19.903Z,2.10
2023-04-05T08:30:45.910Z,2.31
2023-04-05T08:36:14.859Z,2.44
2023-04-05T08:41:49.866Z,2.70
2023-04-05T08:47:14.880Z,2.87
2023-04-05T08:52:39.959Z,3.07
2023-04-05T08:58:11.968Z,3.24
2023-04-05T09:03:39.301Z,3.43
2023-04-05T09:09:05.918Z,3.57
2023-04-05T09:14:32.892Z,3.78
2023-04-05T09:20:03.892Z,3.96
2023-04-05T09:25:45.884Z,3.97
2023-04-05T09:31:12.962Z,4.16
2023-04-05T09:36:39.944Z,4.42
2023-04-05T09:42:21.912Z,4.46
2023-04-05T09:47:50.248Z,4.74
2023-04-05T09:53:25.941Z,5.04
2023-04-05T09:58:50.959Z,5.03
2023-04-05T10:04:17.898Z,4.98
2023-04-05T10:09:42.952Z,4.93
2023-04-05T10:15:06.920Z,5.00
2023-04-05T10:20:44.056Z,5.15
2023-04-05T10:26:17.907Z,5.32
2023-04-05T10:31:51.945Z,5.52
2023-04-05T10:37:26.985Z,5.57
2023-04-05T10:42:59.055Z,5.65
2023-04-05T10:48:31.945Z,5.89
2023-04-05T10:54:00.996Z,6.09
2023-04-05T10:59:26.931Z,6.20
2023-04-05T11:04:53.046Z,6.39
2023-04-05T11:10:26.954Z,6.08
2023-04-05T11:15:52.941Z,6.12
2023-04-05T11:21:18.948Z,5.73
2023-04-05T11:27:07.952Z,5.61
2023-04-05T11:32:33.991Z,5.33
2023-04-05T11:38:23.934Z,5.35
2023-04-05T11:43:52.055Z,5.51
2023-04-05T11:49:17.984Z,5.51
2023-04-05T11:54:43.955Z,5.49
2023-04-05T12:00:11.033Z,5.60
2023-04-05T12:05:36.003Z,6.05
2023-04-05T12:11:00.980Z,6.46
2023-04-05T12:16:29.128Z,6.88
2023-04-05T12:21:52.991Z,7.21
2023-04-05T12:27:19.131Z,7.56
2023-04-05T12:32:52.065Z,7.83
2023-04-05T12:38:16.975Z,7.80
2023-04-05T12:43:41.030Z,8.25
2023-04-05T12:49:09.993Z,8.51
2023-04-05T12:54:39.007Z,8.81
2023-04-05T13:00:10.018Z,8.96
2023-04-05T13:05:39.354Z,9.39
2023-04-05T13:11:05.056Z,9.46
2023-04-05T13:16:30.217Z,9.92
2023-04-05T13:21:58.010Z,10.10
2023-04-05T13:27:22.999Z,9.81
2023-04-05T13:32:48.104Z,9.59
2023-04-05T13:38:16.074Z,10.13
2023-04-05T13:43:40.046Z,10.34
2023-04-05T13:49:05.047Z,10.77
2023-04-05T13:54:32.051Z,10.94
2023-04-05T13:59:57.158Z,10.85
2023-04-05T14:05:29.031Z,11.25
2023-04-05T14:10:57.031Z,11.51
2023-04-05T14:16:35.989Z,12.10
2023-04-05T14:22:02.158Z,12.19
2023-04-05T14:27:29.041Z,12.31
2023-04-05T14:32:56.974Z,12.39
2023-04-05T14:38:23.282Z,12.84
2023-04-05T14:43:48.931Z,13.30
2023-04-05T14:49:16.946Z,13.45
2023-04-05T14:54:42.012Z,12.92
2023-04-05T15:00:07.996Z,12.69
2023-04-05T15:05:35.939Z,12.79
2023-04-05T15:11:02.034Z,13.13
2023-04-05T15:16:33.987Z,13.64
2023-04-05T15:22:01.978Z,13.71
2023-04-05T15:27:20.941Z,13.55
2023-04-05T15:32:46.002Z,13.16
2023-04-05T15:38:13.961Z,12.54
2023-04-05T15:43:37.985Z,12.67
2023-04-05T15:49:03.221Z,12.61
2023-04-05T15:54:30.969Z,12.19
2023-04-05T15:59:56.992Z,11.77
2023-04-05T16:05:23.004Z,11.59
2023-04-05T16:10:51.972Z,11.27
2023-04-05T16:16:30.076Z,11.37
2023-04-05T16:22:01.979Z,11.52
2023-04-05T16:27:29.999Z,11.08
2023-04-05T16:32:55.261Z,11.09
2023-04-05T16:38:20.014Z,11.08
2023-04-05T16:43:47.996Z,10.95
2023-04-05T16:49:13.997Z,10.58
2023-04-05T16:54:39.006Z,10.60
2023-04-05T17:00:06.169Z,10.78
2023-04-05T17:05:31.016Z,10.79
2023-04-05T17:10:55.024Z,10.27
2023-04-05T17:16:29.127Z,9.84
2023-04-05T17:21:56.263Z,9.08
2023-04-05T17:27:21.018Z,8.67
2023-04-05T17:32:49.113Z,8.10
2023-04-05T17:38:15.075Z,7.73
2023-04-05T17:43:40.032Z,7.29
2023-04-05T17:49:08.379Z,6.86
2023-04-05T17:54:33.028Z,6.54
2023-04-05T17:59:59.342Z,6.17
2023-04-05T18:05:27.041Z,5.78
2023-04-05T18:10:52.046Z,5.52
2023-04-05T18:16:23.106Z,5.24
2023-04-05T18:21:51.028Z,5.17
2023-04-05T18:27:16.052Z,5.08
2023-04-05T18:32:41.103Z,4.82
2023-04-05T18:38:08.050Z,4.67
2023-04-05T18:43:33.048Z,4.51
2023-04-05T18:49:01.093Z,4.44
2023-04-05T18:54:29.250Z,4.37
2023-04-05T18:59:53.069Z,4.32
2023-04-05T19:05:20.185Z,4.28
2023-04-05T19:10:49.066Z,4.25
2023-04-05T19:16:24.185Z,4.27
2023-04-05T19:21:50.183Z,4.24
2023-04-05T19:27:18.078Z,4.20
2023-04-05T19:32:43.098Z,4.18
2023-04-05T19:38:09.064Z,4.19
2023-04-05T19:43:53.132Z,4.15
2023-04-05T19:49:33.123Z,4.05
2023-04-05T19:55:01.221Z,3.96
2023-04-05T20:00:43.312Z,3.78
2023-04-05T20:06:21.083Z,3.76
2023-04-05T20:11:49.099Z,3.76
2023-04-05T20:17:44.178Z,3.79
2023-04-05T20:23:09.124Z,3.79
2023-04-05T20:29:00.141Z,3.78
2023-04-05T20:34:31.151Z,3.73
2023-04-05T20:39:57.123Z,3.72
2023-04-05T20:45:51.170Z,3.75
2023-04-05T20:51:18.124Z,3.69
2023-04-05T20:56:43.205Z,3.76
2023-04-05T21:02:10.164Z,3.89
2023-04-05T21:07:36.135Z,3.81
2023-04-05T21:13:01.220Z,3.84
2023-04-05T21:18:29.145Z,3.80
2023-04-05T21:23:54.150Z,3.73
2023-04-05T21:29:21.136Z,3.66
2023-04-05T21:34:50.925Z,3.62
2023-04-05T21:40:18.133Z,3.57
2023-04-05T21:45:44.146Z,3.42
2023-04-05T21:51:12.146Z,3.35
2023-04-05T21:56:36.165Z,3.29
2023-04-05T22:02:01.171Z,3.28
2023-04-05T22:07:28.213Z,3.25
2023-04-05T22:12:53.138Z,3.23
2023-04-05T22:18:18.173Z,3.23
2023-04-05T22:23:46.165Z,3.22
2023-04-05T22:29:11.193Z,3.21
2023-04-05T22:34:36.161Z,3.23
2023-04-05T22:40:03.195Z,3.25
2023-04-05T22:45:28.269Z,3.23
2023-04-05T22:50:53.162Z,3.18
2023-04-05T23:02:15.157Z,3.11
2023-04-05T23:07:55.153Z,3.06
2023-04-05T23:13:20.160Z,2.99
2023-04-05T23:18:45.152Z,3.02
2023-04-05T23:24:17.162Z,3.02
2023-04-05T23:29:41.217Z,2.99
2023-04-05T23:35:06.199Z,3.00
2023-04-05T23:40:33.162Z,2.96
2023-04-05T23:45:58.206Z,2.90
2023-04-05T23:51:23.185Z,2.79
2023-04-05T23:56:51.178Z,2.62
